Fort Dodge Regional Airport
KFOD : now visible

Airfield :











YOU CAN JOIN US ON...

 
LOGIN :

Register | Disclaimer

   EN    FR    IT 

 









Legend :    VFR   Marginal VFR   IFR   Intensive IFR   Very Intensive IFR
Visi :
Ceiling :
>= 8 km
>= 3000ft
5 to 8 km
1000 to 3000 ft
1500m to 5 km
500 to 1000 ft
800 to 1500m
200 to 500 ft
< 800m
< 200 ft
Symbols :   Thunderstorms  Fog  Heavy snow  Heavy precipitations  Wind > 20 kt






- Airport Elevation : 1156 ft
- IATA code : FOD


KFOD - Fort Dodge Regional

CURRENT METAR :
  • 221015Z AUTO 09004KT 10SM BKN005 OVC048 19/19 A2988 RMK AO2 RAE03 P0000

EXPIRED METARs :
  • 220920Z AUTO 05006KT 5SM RA BR FEW004 BKN048 OVC100 19/18 A2989 RMK AO2 P0009
  • 220908Z AUTO 09009KT 3SM +RA BR SCT005 BKN023 OVC055 19/18 A2991 RMK AO2 LTG DSNT SW CIG 015V032 P0006
  • 220903Z AUTO VRB04KT 2 1/2SM +RA BR BKN005 BKN016 OVC050 19/18 A2992 RMK AO2 VIS 1 3/4V5 LTG DSNT E AND SW P0005
  • 220844Z AUTO 04005KT 4SM VCTS RA BR OVC005 19/19 A2992 RMK AO2 LTG DSNT E-SW TSB01E16B25 CIG 004V011 P0034
  • 220835Z AUTO 06007KT 2 1/2SM VCTS +RA BR BKN005 BKN011 OVC016 19/19 A2992 RMK AO2 VIS 1 1/4V4 LTG DSNT SE TSB01E16B25 CIG 004V009 P0031
  • 220827Z AUTO VRB03KT 3SM VCTS +RA BR BKN005 BKN012 OVC023 19/19 A2994 RMK AO2 LTG DSNT N AND S TSB01E16B25 CIG 004V009 P0027
  • 220816Z AUTO 03008G21KT 2SM +RA BR FEW007 BKN013 OVC018 19/19 A2992 RMK AO2 LTG DSNT N AND S TSB01E16 P0023
  • 220752Z AUTO 02007G17KT 350V050 10SM FEW008 OVC015 21/19 A2989 RMK AO2 LTG DSNT ALQDS RAE45 P0000
  • 220731Z AUTO 02011G17KT 10SM FEW007 BKN013 OVC050 22/21 A2990 RMK AO2 LTG DSNT N AND NE RAE30 P0000
  • 220656Z AUTO 21011KT 10SM -RA BKN060 OVC080 26/22 A2989 RMK AO2 LTG DSNT NW-NE RAB05 SLP122 P0000 T02610222
  • 220556Z AUTO 19013KT 10SM FEW075 OVC100 27/22 A2991 RMK AO2 LTG DSNT N SLP130 T02670222 10289 20267 58006

TAF KFOD
Valid from the 22 at 09:00 until the 23 at 06:00 UTC


220831Z 2209/2306 19013KT 6SM -SHRA VCTS BKN015CB
TEMPO 2209/2210 3SM TSRA BKN005CB
FM221200 21010KT 6SM -SHRA BR VCTS BKN035CB
FM221600 26012KT P6SM VCTS BKN040CB
FM221800 29011KT P6SM VCTS BKN030CB
FM222100 31010KT P6SM VCTS SCT060CB
FM230000 33005KT P6SM SCT080
KZMP FIR / North America



MET'MAP, your aeronautical weather chart ! - Copyright ORBIFLY December 2007 - Disclaimer

ORBIFLY MET'MAP TEAM :

Programming & Development : Alexandra Zaïnal
Original concept : Baudouin d'Aumeries
Technical & hardware support : Manuel Goepfert
Assistance : Marc-Olivier Méhu




SOURCES & CREDITS :

   NOAA       Earth
Advisory